sensor_id;sensor_type;location;lat;lon;timestamp;pressure;altitude;pressure_sealevel;temperature;humidity
818;BME280;391;51.052;6.954;2023-09-12T00:00:36;100420.28;;;22.26;95.01
818;BME280;391;51.052;6.954;2023-09-12T00:02:39;100423.84;;;22.25;94.53
818;BME280;391;51.052;6.954;2023-09-12T00:04:42;100425.97;;;22.10;95.16
818;BME280;391;51.052;6.954;2023-09-12T00:06:45;100424.44;;;21.99;95.99
818;BME280;391;51.052;6.954;2023-09-12T00:08:51;100431.06;;;22.20;94.83
818;BME280;391;51.052;6.954;2023-09-12T00:10:59;100429.53;;;22.09;94.74
818;BME280;391;51.052;6.954;2023-09-12T00:13:03;100431.59;;;21.97;96.32
818;BME280;391;51.052;6.954;2023-09-12T00:15:07;100433.16;;;22.05;95.49
818;BME280;391;51.052;6.954;2023-09-12T00:17:10;100434.31;;;21.94;95.65
818;BME280;391;51.052;6.954;2023-09-12T00:19:13;100432.72;;;21.85;96.64
818;BME280;391;51.052;6.954;2023-09-12T00:21:16;100436.22;;;21.86;97.19
818;BME280;391;51.052;6.954;2023-09-12T00:23:21;100429.09;;;21.89;96.05
818;BME280;391;51.052;6.954;2023-09-12T00:25:26;100429.28;;;21.80;97.57
818;BME280;391;51.052;6.954;2023-09-12T00:27:30;100425.84;;;21.75;97.17
818;BME280;391;51.052;6.954;2023-09-12T00:29:34;100395.31;;;21.56;97.93
818;BME280;391;51.052;6.954;2023-09-12T00:31:37;100398.03;;;21.53;98.74
818;BME280;391;51.052;6.954;2023-09-12T00:33:41;100386.75;;;21.42;99.42
818;BME280;391;51.052;6.954;2023-09-12T00:35:44;100390.22;;;21.47;99.12
818;BME280;391;51.052;6.954;2023-09-12T00:39:51;100387.03;;;21.30;99.84
818;BME280;391;51.052;6.954;2023-09-12T00:41:56;100378.22;;;21.28;100.00
818;BME280;391;51.052;6.954;2023-09-12T00:43:59;100355.69;;;21.04;98.54
818;BME280;391;51.052;6.954;2023-09-12T00:46:02;100366.13;;;21.15;98.96
818;BME280;391;51.052;6.954;2023-09-12T00:48:07;100366.06;;;21.18;98.64
818;BME280;391;51.052;6.954;2023-09-12T00:50:12;100360.72;;;21.19;98.70
818;BME280;391;51.052;6.954;2023-09-12T00:52:17;100332.72;;;21.04;98.20
818;BME280;391;51.052;6.954;2023-09-12T00:54:21;100360.91;;;21.08;98.94
818;BME280;391;51.052;6.954;2023-09-12T00:56:24;100364.59;;;21.01;99.88
818;BME280;391;51.052;6.954;2023-09-12T00:58:28;100370.69;;;21.05;99.24
818;BME280;391;51.052;6.954;2023-09-12T01:00:33;100365.53;;;20.97;99.65
818;BME280;391;51.052;6.954;2023-09-12T01:02:37;100381.25;;;21.06;99.14
818;BME280;391;51.052;6.954;2023-09-12T01:04:42;100379.72;;;20.95;100.00
818;BME280;391;51.052;6.954;2023-09-12T01:06:46;100381.38;;;21.02;100.00
818;BME280;391;51.052;6.954;2023-09-12T01:08:50;100375.97;;;21.06;99.48
818;BME280;391;51.052;6.954;2023-09-12T01:10:55;100377.72;;;21.09;100.00
818;BME280;391;51.052;6.954;2023-09-12T01:13:00;100375.44;;;20.89;100.00
818;BME280;391;51.052;6.954;2023-09-12T01:15:05;100368.56;;;20.79;100.00
818;BME280;391;51.052;6.954;2023-09-12T01:17:12;100375.63;;;20.79;100.00
818;BME280;391;51.052;6.954;2023-09-12T01:19:16;100380.03;;;20.78;100.00
818;BME280;391;51.052;6.954;2023-09-12T01:24:04;100379.97;;;20.83;100.00
818;BME280;391;51.052;6.954;2023-09-12T01:26:18;100371.66;;;21.01;100.00
818;BME280;391;51.052;6.954;2023-09-12T01:28:29;100378.13;;;20.86;100.00
818;BME280;391;51.052;6.954;2023-09-12T01:30:34;100372.78;;;20.89;100.00
818;BME280;391;51.052;6.954;2023-09-12T01:32:38;100393.34;;;20.77;100.00
818;BME280;391;51.052;6.954;2023-09-12T01:34:42;100404.75;;;20.80;100.00
818;BME280;391;51.052;6.954;2023-09-12T01:36:46;100330.16;;;20.54;100.00
818;BME280;391;51.052;6.954;2023-09-12T01:38:50;100428.44;;;20.89;100.00
818;BME280;391;51.052;6.954;2023-09-12T01:40:54;100415.91;;;20.99;100.00
818;BME280;391;51.052;6.954;2023-09-12T01:43:00;100409.25;;;20.75;100.00
818;BME280;391;51.052;6.954;2023-09-12T01:45:09;100409.13;;;20.81;100.00
818;BME280;391;51.052;6.954;2023-09-12T01:47:13;100401.19;;;20.83;100.00
818;BME280;391;51.052;6.954;2023-09-12T01:49:19;100402.88;;;20.85;100.00
818;BME280;391;51.052;6.954;2023-09-12T01:51:25;100403.00;;;20.79;100.00
818;BME280;391;51.052;6.954;2023-09-12T01:53:29;100387.75;;;20.90;100.00
818;BME280;391;51.052;6.954;2023-09-12T01:55:33;100381.84;;;20.76;100.00
818;BME280;391;51.052;6.954;2023-09-12T01:57:38;100346.94;;;20.54;100.00
818;BME280;391;51.052;6.954;2023-09-12T01:59:42;100374.13;;;20.64;100.00
818;BME280;391;51.052;6.954;2023-09-12T02:01:46;100315.50;;;20.35;100.00
818;BME280;391;51.052;6.954;2023-09-12T02:03:49;100356.72;;;20.49;100.00
818;BME280;391;51.052;6.954;2023-09-12T02:05:53;100362.84;;;20.53;100.00
818;BME280;391;51.052;6.954;2023-09-12T02:07:56;100369.97;;;20.49;100.00
818;BME280;391;51.052;6.954;2023-09-12T02:10:03;100364.72;;;20.48;100.00
818;BME280;391;51.052;6.954;2023-09-12T02:12:07;100371.84;;;20.44;100.00
818;BME280;391;51.052;6.954;2023-09-12T02:14:11;100373.50;;;20.51;100.00
818;BME280;391;51.052;6.954;2023-09-12T02:16:14;100380.19;;;20.71;100.00
818;BME280;391;51.052;6.954;2023-09-12T02:18:19;100378.41;;;20.71;100.00
818;BME280;391;51.052;6.954;2023-09-12T02:20:22;100387.50;;;20.56;100.00
818;BME280;391;51.052;6.954;2023-09-12T02:22:26;100392.75;;;20.59;100.00
818;BME280;391;51.052;6.954;2023-09-12T02:24:29;100397.31;;;20.51;100.00
818;BME280;391;51.052;6.954;2023-09-12T02:26:33;100402.56;;;20.53;100.00
818;BME280;391;51.052;6.954;2023-09-12T02:28:38;100416.72;;;20.52;100.00
818;BME280;391;51.052;6.954;2023-09-12T02:30:42;100420.13;;;20.60;100.00
818;BME280;391;51.052;6.954;2023-09-12T02:32:46;100415.81;;;20.54;100.00
818;BME280;391;51.052;6.954;2023-09-12T02:34:51;100422.94;;;20.51;100.00
818;BME280;391;51.052;6.954;2023-09-12T02:36:55;100420.41;;;20.45;100.00
818;BME280;391;51.052;6.954;2023-09-12T02:38:58;100427.34;;;20.50;100.00
818;BME280;391;51.052;6.954;2023-09-12T02:41:02;100418.31;;;20.62;100.00
818;BME280;391;51.052;6.954;2023-09-12T02:43:05;100413.13;;;20.56;100.00
818;BME280;391;51.052;6.954;2023-09-12T02:45:09;100403.63;;;20.44;100.00
818;BME280;391;51.052;6.954;2023-09-12T02:47:13;100408.75;;;20.52;100.00
818;BME280;391;51.052;6.954;2023-09-12T02:49:16;100411.34;;;20.56;100.00
818;BME280;391;51.052;6.954;2023-09-12T02:51:21;100404.69;;;20.33;100.00
818;BME280;391;51.052;6.954;2023-09-12T02:53:26;100403.69;;;20.41;100.00
818;BME280;391;51.052;6.954;2023-09-12T02:55:30;100396.84;;;20.25;100.00
818;BME280;391;51.052;6.954;2023-09-12T02:57:34;100401.41;;;20.16;100.00
818;BME280;391;51.052;6.954;2023-09-12T02:59:37;100385.56;;;20.13;100.00
818;BME280;391;51.052;6.954;2023-09-12T03:01:41;100385.69;;;20.05;100.00
818;BME280;391;51.052;6.954;2023-09-12T03:03:45;100374.13;;;20.11;100.00
818;BME280;391;51.052;6.954;2023-09-12T03:05:57;100369.78;;;20.05;100.00
818;BME280;391;51.052;6.954;2023-09-12T03:08:02;100365.38;;;20.05;100.00
818;BME280;391;51.052;6.954;2023-09-12T03:10:07;100355.81;;;19.97;100.00
818;BME280;391;51.052;6.954;2023-09-12T03:12:09;100360.63;;;20.29;100.00
818;BME280;391;51.052;6.954;2023-09-12T03:14:12;100367.59;;;20.34;100.00
818;BME280;391;51.052;6.954;2023-09-12T03:16:17;100368.75;;;20.14;100.00
818;BME280;391;51.052;6.954;2023-09-12T03:18:21;100373.22;;;20.12;100.00
818;BME280;391;51.052;6.954;2023-09-12T03:20:24;100377.72;;;20.06;100.00
818;BME280;391;51.052;6.954;2023-09-12T03:22:28;100375.09;;;20.06;100.00
818;BME280;391;51.052;6.954;2023-09-12T03:24:33;100371.31;;;20.21;100.00
818;BME280;391;51.052;6.954;2023-09-12T03:26:36;100371.47;;;20.12;100.00
818;BME280;391;51.052;6.954;2023-09-12T03:28:39;100366.06;;;20.17;100.00
818;BME280;391;51.052;6.954;2023-09-12T03:30:44;100364.34;;;20.16;100.00
818;BME280;391;51.052;6.954;2023-09-12T03:32:48;100364.41;;;20.13;100.00
818;BME280;391;51.052;6.954;2023-09-12T03:34:51;100362.63;;;20.12;100.00
818;BME280;391;51.052;6.954;2023-09-12T03:36:55;100360.03;;;20.10;100.00
818;BME280;391;51.052;6.954;2023-09-12T03:38:58;100362.25;;;20.37;100.00
818;BME280;391;51.052;6.954;2023-09-12T03:41:03;100332.53;;;20.19;100.00
818;BME280;391;51.052;6.954;2023-09-12T03:43:07;100354.28;;;20.37;100.00
818;BME280;391;51.052;6.954;2023-09-12T03:45:10;100355.06;;;20.42;100.00
818;BME280;391;51.052;6.954;2023-09-12T03:47:14;100355.00;;;20.48;100.00
818;BME280;391;51.052;6.954;2023-09-12T03:49:18;100353.31;;;20.43;100.00
818;BME280;391;51.052;6.954;2023-09-12T03:51:22;100356.94;;;20.39;100.00
818;BME280;391;51.052;6.954;2023-09-12T03:53:26;100350.88;;;20.32;100.00
818;BME280;391;51.052;6.954;2023-09-12T03:55:30;100351.78;;;20.77;99.24
818;BME280;391;51.052;6.954;2023-09-12T03:57:35;100340.59;;;20.62;100.00
818;BME280;391;51.052;6.954;2023-09-12T03:59:38;100342.06;;;20.79;99.04
818;BME280;391;51.052;6.954;2023-09-12T04:01:42;100347.28;;;20.82;99.08
818;BME280;391;51.052;6.954;2023-09-12T04:03:45;100341.81;;;20.91;97.16
818;BME280;391;51.052;6.954;2023-09-12T04:05:50;100317.31;;;20.79;96.77
818;BME280;391;51.052;6.954;2023-09-12T04:07:54;100336.25;;;21.03;97.11
818;BME280;391;51.052;6.954;2023-09-12T04:09:57;100336.31;;;21.00;96.49
818;BME280;391;51.052;6.954;2023-09-12T04:12:01;100339.44;;;21.22;96.14
818;BME280;391;51.052;6.954;2023-09-12T04:14:06;100339.34;;;21.27;94.74
818;BME280;391;51.052;6.954;2023-09-12T04:16:09;100340.44;;;21.17;95.55
818;BME280;391;51.052;6.954;2023-09-12T04:18:13;100341.56;;;21.03;96.11
818;BME280;391;51.052;6.954;2023-09-12T04:20:18;100347.63;;;21.10;96.29
818;BME280;391;51.052;6.954;2023-09-12T04:22:21;100348.25;;;21.24;95.82
818;BME280;391;51.052;6.954;2023-09-12T04:24:25;100337.59;;;21.26;96.02
818;BME280;391;51.052;6.954;2023-09-12T04:26:28;100344.50;;;21.33;95.06
818;BME280;391;51.052;6.954;2023-09-12T04:28:32;100343.84;;;21.23;94.65
818;BME280;391;51.052;6.954;2023-09-12T04:30:37;100341.88;;;20.87;96.97
818;BME280;391;51.052;6.954;2023-09-12T04:32:42;100333.53;;;21.06;97.07
818;BME280;391;51.052;6.954;2023-09-12T04:34:45;100335.06;;;21.21;95.91
818;BME280;391;51.052;6.954;2023-09-12T04:36:49;100339.06;;;20.96;96.14
818;BME280;391;51.052;6.954;2023-09-12T04:38:52;100333.53;;;21.06;95.52
818;BME280;391;51.052;6.954;2023-09-12T04:40:57;100326.72;;;20.93;95.98
818;BME280;391;51.052;6.954;2023-09-12T04:43:05;100333.97;;;20.85;97.25
818;BME280;391;51.052;6.954;2023-09-12T04:45:09;100331.63;;;20.70;98.49
818;BME280;391;51.052;6.954;2023-09-12T04:47:14;100332.78;;;21.01;96.85
818;BME280;391;51.052;6.954;2023-09-12T04:49:17;100327.41;;;21.03;96.29
818;BME280;391;51.052;6.954;2023-09-12T04:51:21;100299.06;;;21.08;97.54
818;BME280;391;51.052;6.954;2023-09-12T04:53:25;100276.28;;;20.98;96.96
818;BME280;391;51.052;6.954;2023-09-12T04:55:28;100261.16;;;21.03;97.17
818;BME280;391;51.052;6.954;2023-09-12T04:57:31;100268.66;;;20.83;98.02
818;BME280;391;51.052;6.954;2023-09-12T04:59:35;100283.38;;;20.97;97.04
818;BME280;391;51.052;6.954;2023-09-12T05:01:39;100293.53;;;20.76;98.62
818;BME280;391;51.052;6.954;2023-09-12T05:03:43;100271.31;;;20.81;97.04
818;BME280;391;51.052;6.954;2023-09-12T05:05:47;100306.34;;;20.97;97.95
818;BME280;391;51.052;6.954;2023-09-12T05:07:52;100300.47;;;20.83;98.32
818;BME280;391;51.052;6.954;2023-09-12T05:09:56;100314.75;;;20.74;98.21
818;BME280;391;51.052;6.954;2023-09-12T05:11:59;100340.53;;;20.68;98.57
818;BME280;391;51.052;6.954;2023-09-12T05:14:03;100356.94;;;20.85;97.99
818;BME280;391;51.052;6.954;2023-09-12T05:16:06;100359.59;;;20.86;98.08
818;BME280;391;51.052;6.954;2023-09-12T05:18:10;100363.81;;;20.95;97.25
818;BME280;391;51.052;6.954;2023-09-12T05:20:15;100342.09;;;20.76;97.22
818;BME280;391;51.052;6.954;2023-09-12T05:22:19;100375.25;;;20.97;97.07
818;BME280;391;51.052;6.954;2023-09-12T05:24:23;100380.50;;;21.01;97.37
818;BME280;391;51.052;6.954;2023-09-12T05:26:26;100392.72;;;21.08;96.58
818;BME280;391;51.052;6.954;2023-09-12T05:28:29;100385.84;;;20.98;96.80
818;BME280;391;51.052;6.954;2023-09-12T05:30:33;100387.69;;;20.93;96.45
818;BME280;391;51.052;6.954;2023-09-12T05:32:37;100258.94;;;20.39;97.18
818;BME280;391;51.052;6.954;2023-09-12T05:34:40;100399.00;;;21.03;96.62
818;BME280;391;51.052;6.954;2023-09-12T05:36:45;100402.31;;;21.17;96.87
818;BME280;391;51.052;6.954;2023-09-12T05:38:48;100416.94;;;21.36;95.78
818;BME280;391;51.052;6.954;2023-09-12T05:40:52;100408.59;;;21.54;95.56
818;BME280;391;51.052;6.954;2023-09-12T05:42:56;100411.63;;;21.79;91.97
818;BME280;391;51.052;6.954;2023-09-12T05:44:59;100422.94;;;21.47;92.62
818;BME280;391;51.052;6.954;2023-09-12T05:47:03;100413.81;;;21.59;93.98
818;BME280;391;51.052;6.954;2023-09-12T05:49:07;100418.31;;;21.55;92.88
818;BME280;391;51.052;6.954;2023-09-12T05:51:10;100415.09;;;21.40;93.42
818;BME280;391;51.052;6.954;2023-09-12T05:53:15;100411.00;;;21.24;95.74
818;BME280;391;51.052;6.954;2023-09-12T05:55:19;100419.88;;;21.23;95.59
818;BME280;391;51.052;6.954;2023-09-12T05:57:22;100416.38;;;21.21;95.46
818;BME280;391;51.052;6.954;2023-09-12T05:59:26;100421.56;;;21.25;95.68
818;BME280;391;51.052;6.954;2023-09-12T06:01:30;100427.56;;;21.35;95.05
818;BME280;391;51.052;6.954;2023-09-12T06:03:33;100427.09;;;21.59;94.07
818;BME280;391;51.052;6.954;2023-09-12T06:05:37;100425.13;;;21.67;94.06
818;BME280;391;51.052;6.954;2023-09-12T06:07:41;100421.47;;;21.31;97.12
818;BME280;391;51.052;6.954;2023-09-12T06:09:45;100415.38;;;21.26;97.78
818;BME280;391;51.052;6.954;2023-09-12T06:11:49;100401.75;;;20.98;99.94
818;BME280;391;51.052;6.954;2023-09-12T06:13:53;100405.53;;;20.85;100.00
818;BME280;391;51.052;6.954;2023-09-12T06:15:56;100409.78;;;20.95;100.00
818;BME280;391;51.052;6.954;2023-09-12T06:17:59;100412.91;;;21.19;100.00
818;BME280;391;51.052;6.954;2023-09-12T06:20:02;100410.00;;;20.82;100.00
818;BME280;391;51.052;6.954;2023-09-12T06:22:08;100412.06;;;20.68;100.00
818;BME280;391;51.052;6.954;2023-09-12T06:24:13;100412.22;;;20.57;100.00
818;BME280;391;51.052;6.954;2023-09-12T06:26:19;100412.13;;;20.62;100.00
818;BME280;391;51.052;6.954;2023-09-12T06:28:25;100386.78;;;20.47;100.00
818;BME280;391;51.052;6.954;2023-09-12T06:30:29;100418.41;;;20.57;100.00
818;BME280;391;51.052;6.954;2023-09-12T06:32:32;100420.94;;;20.64;100.00
818;BME280;391;51.052;6.954;2023-09-12T06:34:35;100425.69;;;20.94;100.00
818;BME280;391;51.052;6.954;2023-09-12T06:36:39;100432.63;;;21.01;100.00
818;BME280;391;51.052;6.954;2023-09-12T06:38:43;100427.69;;;20.81;100.00
818;BME280;391;51.052;6.954;2023-09-12T06:40:47;100422.69;;;21.58;100.00
818;BME280;391;51.052;6.954;2023-09-12T06:42:52;100416.13;;;21.34;100.00
818;BME280;391;51.052;6.954;2023-09-12T06:44:55;100421.13;;;21.02;100.00
818;BME280;391;51.052;6.954;2023-09-12T06:46:59;100404.59;;;20.89;100.00
818;BME280;391;51.052;6.954;2023-09-12T06:49:03;100420.25;;;21.01;100.00
818;BME280;391;51.052;6.954;2023-09-12T06:51:09;100389.69;;;20.82;100.00
818;BME280;391;51.052;6.954;2023-09-12T06:53:18;100411.13;;;21.18;100.00
818;BME280;391;51.052;6.954;2023-09-12T06:55:22;100407.16;;;21.80;99.07
818;BME280;391;51.052;6.954;2023-09-12T06:57:25;100406.25;;;21.41;99.45
818;BME280;391;51.052;6.954;2023-09-12T06:59:30;100407.47;;;22.07;97.92
818;BME280;391;51.052;6.954;2023-09-12T07:01:34;100407.75;;;22.31;95.90
818;BME280;391;51.052;6.954;2023-09-12T07:03:37;100403.59;;;21.82;96.66
818;BME280;391;51.052;6.954;2023-09-12T07:05:41;100417.75;;;21.81;96.97
818;BME280;391;51.052;6.954;2023-09-12T07:07:44;100408.50;;;22.00;96.35
818;BME280;391;51.052;6.954;2023-09-12T07:09:47;100411.13;;;22.74;91.33
818;BME280;391;51.052;6.954;2023-09-12T07:11:50;100409.25;;;22.42;93.33
818;BME280;391;51.052;6.954;2023-09-12T07:13:54;100409.59;;;22.64;92.18
818;BME280;391;51.052;6.954;2023-09-12T07:15:59;100405.59;;;22.82;88.38
818;BME280;391;51.052;6.954;2023-09-12T07:18:05;100391.44;;;22.10;92.08
818;BME280;391;51.052;6.954;2023-09-12T07:20:10;100397.91;;;22.36;91.72
818;BME280;391;51.052;6.954;2023-09-12T08:12:07;100387.69;;;23.20;88.21
818;BME280;391;51.052;6.954;2023-09-12T08:14:11;100383.94;;;23.28;87.79
818;BME280;391;51.052;6.954;2023-09-12T08:16:14;100389.41;;;23.54;87.52
818;BME280;391;51.052;6.954;2023-09-12T08:18:18;100386.16;;;23.44;86.84
818;BME280;391;51.052;6.954;2023-09-12T08:20:20;100397.63;;;23.14;87.15
818;BME280;391;51.052;6.954;2023-09-12T08:22:24;100391.75;;;23.03;88.40
818;BME280;391;51.052;6.954;2023-09-12T08:24:27;100394.50;;;22.98;88.09
818;BME280;391;51.052;6.954;2023-09-12T08:26:30;100390.56;;;22.81;89.38
818;BME280;391;51.052;6.954;2023-09-12T08:28:35;100396.44;;;23.24;88.17
818;BME280;391;51.052;6.954;2023-09-12T08:30:38;100400.88;;;23.25;85.67
818;BME280;391;51.052;6.954;2023-09-12T08:32:42;100402.47;;;23.31;83.90
818;BME280;391;51.052;6.954;2023-09-12T08:34:47;100413.84;;;23.36;82.78
818;BME280;391;51.052;6.954;2023-09-12T08:36:50;100418.22;;;23.38;82.08
818;BME280;391;51.052;6.954;2023-09-12T08:38:54;100416.50;;;23.36;81.91
818;BME280;391;51.052;6.954;2023-09-12T08:40:57;100411.59;;;23.53;82.66
818;BME280;391;51.052;6.954;2023-09-12T08:43:01;100414.06;;;23.60;82.73
818;BME280;391;51.052;6.954;2023-09-12T08:45:11;100429.56;;;23.76;83.68
818;BME280;391;51.052;6.954;2023-09-12T08:47:15;100425.75;;;23.84;82.49
818;BME280;391;51.052;6.954;2023-09-12T08:49:21;100428.53;;;23.50;82.37
818;BME280;391;51.052;6.954;2023-09-12T08:51:26;100429.75;;;23.39;82.04
818;BME280;391;51.052;6.954;2023-09-12T08:53:30;100436.00;;;23.36;83.91
818;BME280;391;51.052;6.954;2023-09-12T08:55:34;100448.38;;;23.39;83.14
818;BME280;391;51.052;6.954;2023-09-12T08:57:41;100446.09;;;23.57;82.60
818;BME280;391;51.052;6.954;2023-09-12T08:59:45;100447.22;;;23.49;82.02
818;BME280;391;51.052;6.954;2023-09-12T09:01:51;100452.63;;;23.77;80.76
818;BME280;391;51.052;6.954;2023-09-12T09:03:56;100453.31;;;23.83;81.44
818;BME280;391;51.052;6.954;2023-09-12T09:06:01;100449.81;;;23.81;81.75
818;BME280;391;51.052;6.954;2023-09-12T09:08:06;100451.75;;;23.76;80.92
818;BME280;391;51.052;6.954;2023-09-12T09:10:15;100424.00;;;23.54;82.22
818;BME280;391;51.052;6.954;2023-09-12T09:12:23;100453.94;;;23.91;81.46
818;BME280;391;51.052;6.954;2023-09-12T09:14:27;100457.41;;;24.24;80.24
818;BME280;391;51.052;6.954;2023-09-12T09:16:32;100402.75;;;23.82;79.51
818;BME280;391;51.052;6.954;2023-09-12T09:18:52;100462.44;;;24.33;78.38
818;BME280;391;51.052;6.954;2023-09-12T09:20:56;100458.66;;;24.40;78.62
818;BME280;391;51.052;6.954;2023-09-12T09:23:00;100458.84;;;24.60;78.09
818;BME280;391;51.052;6.954;2023-09-12T09:25:10;100461.53;;;24.34;78.68
818;BME280;391;51.052;6.954;2023-09-12T09:27:32;100466.09;;;24.29;81.02
818;BME280;391;51.052;6.954;2023-09-12T09:29:46;100472.59;;;24.48;80.70
818;BME280;391;51.052;6.954;2023-09-12T09:31:51;100473.91;;;24.35;82.16
818;BME280;391;51.052;6.954;2023-09-12T09:33:58;100469.94;;;24.20;82.67
818;BME280;391;51.052;6.954;2023-09-12T09:36:03;100404.72;;;23.75;84.18
818;BME280;391;51.052;6.954;2023-09-12T09:38:07;100460.25;;;23.89;84.61
818;BME280;391;51.052;6.954;2023-09-12T09:40:11;100464.78;;;23.85;84.95
818;BME280;391;51.052;6.954;2023-09-12T09:42:15;100467.56;;;23.81;85.42
818;BME280;391;51.052;6.954;2023-09-12T09:44:20;100464.38;;;23.69;85.58
818;BME280;391;51.052;6.954;2023-09-12T09:46:24;100460.16;;;23.92;84.54
818;BME280;391;51.052;6.954;2023-09-12T09:48:28;100464.78;;;23.85;85.19
818;BME280;391;51.052;6.954;2023-09-12T09:50:35;100450.75;;;23.80;85.05
818;BME280;391;51.052;6.954;2023-09-12T09:52:39;100480.34;;;23.99;85.00
818;BME280;391;51.052;6.954;2023-09-12T09:54:43;100471.59;;;23.95;84.38
818;BME280;391;51.052;6.954;2023-09-12T09:56:48;100480.53;;;24.22;83.68
818;BME280;391;51.052;6.954;2023-09-12T09:58:53;100472.19;;;24.05;83.76
818;BME280;391;51.052;6.954;2023-09-12T10:00:57;100472.91;;;24.10;83.34
818;BME280;391;51.052;6.954;2023-09-12T10:03:03;100461.25;;;24.14;83.20
818;BME280;391;51.052;6.954;2023-09-12T10:05:09;100472.19;;;24.34;82.98
818;BME280;391;51.052;6.954;2023-09-12T10:07:14;100466.56;;;24.43;81.98
818;BME280;391;51.052;6.954;2023-09-12T10:09:20;100450.69;;;24.39;82.93
818;BME280;391;51.052;6.954;2023-09-12T10:11:28;100450.38;;;24.48;80.85
818;BME280;391;51.052;6.954;2023-09-12T10:13:35;100448.97;;;24.38;80.25
818;BME280;391;51.052;6.954;2023-09-12T10:15:43;100411.31;;;24.20;80.76
818;BME280;391;51.052;6.954;2023-09-12T10:17:53;100449.63;;;24.44;80.69
818;BME280;391;51.052;6.954;2023-09-12T10:20:02;100453.06;;;24.48;80.58
818;BME280;391;51.052;6.954;2023-09-12T10:22:11;100453.06;;;24.74;80.61
818;BME280;391;51.052;6.954;2023-09-12T10:24:17;100446.41;;;24.89;78.48
818;BME280;391;51.052;6.954;2023-09-12T10:26:23;100455.44;;;25.09;79.45
818;BME280;391;51.052;6.954;2023-09-12T10:28:27;100457.72;;;25.20;78.77
818;BME280;391;51.052;6.954;2023-09-12T10:30:31;100456.53;;;25.04;78.63
818;BME280;391;51.052;6.954;2023-09-12T10:32:36;100449.41;;;25.04;77.45
818;BME280;391;51.052;6.954;2023-09-12T10:34:41;100452.28;;;25.23;78.35
818;BME280;391;51.052;6.954;2023-09-12T10:36:47;100448.66;;;25.24;77.68
818;BME280;391;51.052;6.954;2023-09-12T10:38:52;100448.47;;;25.30;76.95
818;BME280;391;51.052;6.954;2023-09-12T10:40:58;100457.88;;;25.40;77.01
818;BME280;391;51.052;6.954;2023-09-12T10:43:03;100456.59;;;25.27;78.64
818;BME280;391;51.052;6.954;2023-09-12T10:45:08;100447.94;;;25.20;78.73
818;BME280;391;51.052;6.954;2023-09-12T10:47:13;100441.66;;;25.21;78.96
818;BME280;391;51.052;6.954;2023-09-12T10:49:17;100451.25;;;25.27;77.83
818;BME280;391;51.052;6.954;2023-09-12T10:51:21;100446.34;;;25.15;78.21
818;BME280;391;51.052;6.954;2023-09-12T10:53:26;100442.63;;;25.19;77.65
818;BME280;391;51.052;6.954;2023-09-12T10:55:30;100439.09;;;25.18;79.19
818;BME280;391;51.052;6.954;2023-09-12T10:58:01;100435.88;;;25.09;77.43
818;BME280;391;51.052;6.954;2023-09-12T11:00:11;100445.88;;;25.02;77.71
818;BME280;391;51.052;6.954;2023-09-12T11:02:30;100446.19;;;24.95;77.53
818;BME280;391;51.052;6.954;2023-09-12T11:04:36;100445.44;;;25.14;78.01
818;BME280;391;51.052;6.954;2023-09-12T11:06:40;100451.56;;;25.18;77.35
818;BME280;391;51.052;6.954;2023-09-12T11:08:42;100450.81;;;25.39;76.76
818;BME280;391;51.052;6.954;2023-09-12T11:11:17;100448.47;;;25.55;74.52
818;BME280;391;51.052;6.954;2023-09-12T11:13:37;100448.69;;;25.95;75.41
818;BME280;391;51.052;6.954;2023-09-12T11:16:10;100447.44;;;26.04;73.11
818;BME280;391;51.052;6.954;2023-09-12T11:18:13;100446.94;;;26.17;74.05
818;BME280;391;51.052;6.954;2023-09-12T11:20:17;100454.25;;;26.36;73.24
818;BME280;391;51.052;6.954;2023-09-12T11:22:26;100453.75;;;26.26;72.56
818;BME280;391;51.052;6.954;2023-09-12T11:24:43;100450.38;;;26.21;74.24
818;BME280;391;51.052;6.954;2023-09-12T11:26:55;100461.28;;;26.15;72.00
818;BME280;391;51.052;6.954;2023-09-12T11:29:11;100439.09;;;26.13;73.71
818;BME280;391;51.052;6.954;2023-09-12T11:31:24;100461.03;;;26.22;72.24
818;BME280;391;51.052;6.954;2023-09-12T11:33:28;100463.50;;;26.49;72.40
818;BME280;391;51.052;6.954;2023-09-12T11:35:37;100453.91;;;26.65;71.58
818;BME280;391;51.052;6.954;2023-09-12T11:37:48;100459.72;;;26.54;72.49
818;BME280;391;51.052;6.954;2023-09-12T11:39:53;100449.94;;;26.53;71.26
818;BME280;391;51.052;6.954;2023-09-12T11:41:58;100437.34;;;26.35;71.10
818;BME280;391;51.052;6.954;2023-09-12T11:44:02;100446.31;;;26.33;72.06
818;BME280;391;51.052;6.954;2023-09-12T11:46:07;100451.88;;;26.50;70.96
818;BME280;391;51.052;6.954;2023-09-12T11:48:12;100446.53;;;26.50;71.82
818;BME280;391;51.052;6.954;2023-09-12T11:50:29;100423.38;;;26.49;71.51
818;BME280;391;51.052;6.954;2023-09-12T11:52:35;100457.31;;;26.68;72.06
818;BME280;391;51.052;6.954;2023-09-12T11:54:40;100460.47;;;26.78;70.57
818;BME280;391;51.052;6.954;2023-09-12T11:56:43;100449.69;;;26.59;70.72
818;BME280;391;51.052;6.954;2023-09-12T11:58:47;100447.75;;;26.63;71.44
818;BME280;391;51.052;6.954;2023-09-12T12:00:53;100448.97;;;26.76;71.94
818;BME280;391;51.052;6.954;2023-09-12T12:02:58;100447.13;;;26.56;71.80
818;BME280;391;51.052;6.954;2023-09-12T12:05:01;100446.34;;;26.54;70.82
818;BME280;391;51.052;6.954;2023-09-12T12:07:07;100447.88;;;26.60;71.23
818;BME280;391;51.052;6.954;2023-09-12T12:09:10;100447.41;;;26.50;71.67
818;BME280;391;51.052;6.954;2023-09-12T12:11:15;100448.81;;;26.37;70.80
818;BME280;391;51.052;6.954;2023-09-12T12:13:21;100446.94;;;26.39;71.11
818;BME280;391;51.052;6.954;2023-09-12T12:15:44;100456.47;;;26.46;70.53
818;BME280;391;51.052;6.954;2023-09-12T12:18:07;100437.56;;;26.51;70.36
818;BME280;391;51.052;6.954;2023-09-12T12:20:11;100442.16;;;26.69;69.68
818;BME280;391;51.052;6.954;2023-09-12T12:22:33;100444.31;;;26.81;67.72